createdAt,value
2017-10-21T00:00:31.997Z,12.83
2017-10-21T00:02:59.522Z,12.17
2017-10-21T00:05:27.243Z,10.43
2017-10-21T00:07:54.766Z,11.60
2017-10-21T00:10:22.377Z,11.63
2017-10-21T00:12:49.887Z,11.73
2017-10-21T00:15:18.177Z,11.47
2017-10-21T00:17:46.461Z,11.17
2017-10-21T00:20:14.026Z,16.30
2017-10-21T00:22:42.298Z,11.40
2017-10-21T00:25:10.572Z,15.10
2017-10-21T00:27:38.856Z,11.67
2017-10-21T00:30:06.513Z,12.77
2017-10-21T00:32:34.795Z,13.10
2017-10-21T00:35:03.053Z,12.87
2017-10-21T00:37:30.563Z,11.83
2017-10-21T00:39:58.089Z,12.00
2017-10-21T00:42:25.670Z,15.90
2017-10-21T00:44:53.199Z,14.20
2017-10-21T00:47:21.465Z,14.93
2017-10-21T00:49:49.772Z,12.97
2017-10-21T00:52:17.249Z,12.33
2017-10-21T00:54:44.783Z,11.77
2017-10-21T00:57:12.270Z,12.50
2017-10-21T00:59:39.799Z,10.93
2017-10-21T01:02:07.315Z,11.53
2017-10-21T01:04:34.854Z,10.30
2017-10-21T01:07:02.344Z,10.57
2017-10-21T01:09:29.859Z,11.33
2017-10-21T01:11:57.367Z,10.68
2017-10-21T01:14:25.692Z,10.73
2017-10-21T01:16:53.196Z,13.30
2017-10-21T01:19:20.743Z,13.73
2017-10-21T01:21:49.032Z,11.50
2017-10-21T01:24:18.083Z,10.13
2017-10-21T01:26:45.620Z,10.77
2017-10-21T01:29:13.168Z,9.93
2017-10-21T01:31:41.427Z,10.60
2017-10-21T01:34:09.727Z,13.00
2017-10-21T01:36:37.238Z,11.63
2017-10-21T01:39:04.753Z,10.60
2017-10-21T01:41:32.234Z,10.67
2017-10-21T01:43:59.804Z,11.50
2017-10-21T01:46:27.298Z,12.60
2017-10-21T01:48:54.824Z,10.80
2017-10-21T01:51:22.350Z,10.50
2017-10-21T01:53:49.862Z,10.30
2017-10-21T01:56:18.160Z,10.60
2017-10-21T01:58:46.493Z,10.00
2017-10-21T02:01:14.012Z,10.50
2017-10-21T02:03:41.523Z,11.20
2017-10-21T02:06:09.028Z,10.05
2017-10-21T02:08:37.392Z,10.30
2017-10-21T02:11:05.689Z,11.97
2017-10-21T02:13:33.209Z,12.77
2017-10-21T02:16:00.777Z,11.10
2017-10-21T02:18:29.078Z,11.43
2017-10-21T02:20:56.624Z,10.70
2017-10-21T02:23:24.919Z,9.63
2017-10-21T02:25:52.429Z,10.07
2017-10-21T02:28:19.939Z,10.07
2017-10-21T02:30:47.434Z,10.37
2017-10-21T02:33:14.960Z,10.70
2017-10-21T02:35:42.527Z,11.30
2017-10-21T02:38:10.047Z,10.80
2017-10-21T02:40:37.568Z,10.93
2017-10-21T02:43:05.051Z,9.93
2017-10-21T02:45:32.568Z,10.07
2017-10-21T02:48:00.126Z,10.63
2017-10-21T02:50:27.643Z,11.40
2017-10-21T02:52:55.948Z,9.10
2017-10-21T02:55:23.443Z,8.63
2017-10-21T02:57:50.956Z,9.90
2017-10-21T03:00:18.692Z,10.10
2017-10-21T03:02:46.216Z,10.80
2017-10-21T03:05:13.865Z,10.40
2017-10-21T03:07:41.408Z,9.80
2017-10-21T03:10:08.967Z,10.87
2017-10-21T03:12:36.512Z,11.40
2017-10-21T03:15:04.791Z,10.07
2017-10-21T03:17:33.065Z,11.33
2017-10-21T03:20:01.381Z,10.67
2017-10-21T03:22:28.965Z,13.97
2017-10-21T03:24:56.474Z,9.93
2017-10-21T03:27:23.984Z,10.83
2017-10-21T03:29:51.574Z,11.30
2017-10-21T03:32:19.901Z,11.57
2017-10-21T03:34:47.431Z,11.30
2017-10-21T03:37:15.100Z,12.00
2017-10-21T03:39:42.612Z,10.83
2017-10-21T03:42:10.167Z,11.27
2017-10-21T03:44:37.709Z,9.93
2017-10-21T03:47:05.219Z,12.30
2017-10-21T03:49:33.556Z,11.17
2017-10-21T03:52:01.067Z,11.47
2017-10-21T03:54:28.582Z,11.87
2017-10-21T03:56:57.181Z,16.00
2017-10-21T03:59:25.472Z,15.90
2017-10-21T04:01:53.740Z,15.70
2017-10-21T04:04:22.049Z,17.57
2017-10-21T04:06:49.603Z,15.97
2017-10-21T04:09:17.138Z,19.70
2017-10-21T04:11:45.385Z,14.50
2017-10-21T04:14:12.925Z,18.50
2017-10-21T04:16:41.281Z,14.80
2017-10-21T04:19:08.795Z,16.65
2017-10-21T04:21:37.075Z,17.37
2017-10-21T04:24:05.368Z,21.00
2017-10-21T04:26:32.900Z,22.77
2017-10-21T04:29:00.431Z,19.00
2017-10-21T04:31:27.948Z,20.23
2017-10-21T04:33:56.209Z,17.33
2017-10-21T04:36:24.473Z,16.80
2017-10-21T04:38:52.807Z,20.60
2017-10-21T04:41:20.317Z,19.65
2017-10-21T04:43:48.624Z,24.23
2017-10-21T04:46:16.123Z,19.60
2017-10-21T04:48:43.752Z,21.53
2017-10-21T04:51:11.280Z,18.97
2017-10-21T04:53:39.545Z,19.50
2017-10-21T04:56:07.076Z,20.33
2017-10-21T04:58:34.721Z,21.10
2017-10-21T05:01:02.235Z,25.00
2017-10-21T05:03:29.785Z,21.30
2017-10-21T05:05:57.303Z,23.33
2017-10-21T05:08:24.860Z,26.53
2017-10-21T05:10:52.481Z,28.37
2017-10-21T05:13:20.767Z,25.97
2017-10-21T05:15:49.055Z,27.10
2017-10-21T05:18:17.690Z,23.13
2017-10-21T05:20:45.226Z,25.60
2017-10-21T05:23:12.725Z,25.63
2017-10-21T05:25:40.997Z,27.17
2017-10-21T05:28:08.535Z,22.30
2017-10-21T05:30:36.156Z,23.80
2017-10-21T05:33:03.717Z,27.80
2017-10-21T05:35:32.058Z,23.97
2017-10-21T05:38:00.343Z,25.43
2017-10-21T05:40:28.641Z,28.83
2017-10-21T05:42:56.177Z,28.47
2017-10-21T05:45:24.525Z,26.07
2017-10-21T05:47:52.065Z,25.77
2017-10-21T05:50:19.704Z,26.57
2017-10-21T05:52:47.242Z,28.00
2017-10-21T05:55:15.560Z,30.93
2017-10-21T05:57:43.121Z,30.23
2017-10-21T06:00:10.646Z,24.20
2017-10-21T06:02:38.160Z,26.77
2017-10-21T06:05:05.785Z,26.07
2017-10-21T06:07:33.354Z,22.40
2017-10-21T06:10:00.868Z,23.85
2017-10-21T06:12:29.178Z,23.83
2017-10-21T06:14:56.746Z,19.20
2017-10-21T06:17:24.256Z,22.13
2017-10-21T06:19:51.856Z,24.77
2017-10-21T06:22:19.374Z,22.83
2017-10-21T06:24:47.692Z,22.70
2017-10-21T06:27:15.211Z,29.80
2017-10-21T06:29:42.758Z,23.47
2017-10-21T06:32:11.053Z,29.03
2017-10-21T06:34:39.329Z,27.93
2017-10-21T06:37:07.647Z,23.83
2017-10-21T06:39:35.191Z,23.83
2017-10-21T06:42:02.769Z,25.70
2017-10-21T06:44:30.312Z,21.97
2017-10-21T06:46:57.847Z,24.77
2017-10-21T06:49:26.190Z,20.10
2017-10-21T06:51:53.693Z,19.67
2017-10-21T06:54:22.107Z,19.00
2017-10-21T06:56:49.629Z,17.90
2017-10-21T06:59:18.025Z,22.77
2017-10-21T07:01:45.694Z,19.60
2017-10-21T07:04:13.253Z,19.00
2017-10-21T07:06:40.777Z,16.73
2017-10-21T07:09:09.095Z,20.57
2017-10-21T07:11:37.229Z,20.63
2017-10-21T07:14:05.642Z,18.13
2017-10-21T07:16:33.216Z,18.10
2017-10-21T07:19:00.740Z,18.37
2017-10-21T07:21:29.055Z,19.00
2017-10-21T07:23:56.674Z,19.50
2017-10-21T07:26:24.542Z,19.43
2017-10-21T07:28:52.809Z,17.10
2017-10-21T07:31:21.201Z,16.93
2017-10-21T07:33:49.486Z,26.77
2017-10-21T07:36:17.167Z,16.50
2017-10-21T07:38:44.701Z,16.60
2017-10-21T07:41:13.028Z,17.07
2017-10-21T07:43:40.593Z,19.87
2017-10-21T07:46:08.116Z,15.80
2017-10-21T07:48:35.792Z,17.13
2017-10-21T07:51:03.439Z,17.40
2017-10-21T07:53:30.941Z,18.43
2017-10-21T07:55:58.490Z,16.00
2017-10-21T07:58:26.021Z,16.47
2017-10-21T08:00:54.527Z,15.50
2017-10-21T08:03:22.039Z,12.20
2017-10-21T08:05:50.335Z,15.00
2017-10-21T08:08:17.914Z,18.80
2017-10-21T08:10:45.448Z,15.80
2017-10-21T08:13:12.980Z,11.20
2017-10-21T08:15:41.281Z,12.27
2017-10-21T08:18:08.862Z,11.83
2017-10-21T08:20:36.372Z,13.80
2017-10-21T08:23:04.656Z,12.00
2017-10-21T08:25:33.041Z,13.03
2017-10-21T08:28:00.550Z,9.10
2017-10-21T08:30:28.065Z,71.80
2017-10-21T08:32:55.653Z,14.50
2017-10-21T08:35:23.301Z,9.93
2017-10-21T08:37:50.955Z,10.40
2017-10-21T08:40:18.501Z,11.70
2017-10-21T08:42:46.793Z,10.50
2017-10-21T08:45:14.319Z,10.53
2017-10-21T08:47:41.836Z,10.60
2017-10-21T08:50:09.373Z,9.57
2017-10-21T08:52:36.920Z,16.47
2017-10-21T08:55:04.423Z,8.33
2017-10-21T08:57:32.161Z,10.13
2017-10-21T08:59:59.676Z,9.23
2017-10-21T09:02:27.188Z,11.43
2017-10-21T09:04:54.755Z,8.50
2017-10-21T09:07:22.287Z,14.40
2017-10-21T09:09:49.887Z,9.87
2017-10-21T09:12:17.460Z,8.60
2017-10-21T09:14:45.734Z,9.90
2017-10-21T09:17:13.260Z,12.25
2017-10-21T09:19:40.835Z,13.20
2017-10-21T09:22:08.452Z,8.60
2017-10-21T09:24:36.778Z,8.53
2017-10-21T09:27:04.298Z,7.63
2017-10-21T09:29:31.798Z,9.20
2017-10-21T09:31:59.415Z,8.07
2017-10-21T09:34:26.920Z,10.93
2017-10-21T09:36:54.466Z,11.67
2017-10-21T09:39:21.985Z,13.65
2017-10-21T09:41:50.240Z,10.40
2017-10-21T09:44:18.544Z,17.10
2017-10-21T09:46:47.716Z,11.63
2017-10-21T09:49:15.989Z,10.63
2017-10-21T09:51:43.513Z,11.37
2017-10-21T09:54:11.026Z,10.23
2017-10-21T09:56:39.305Z,10.00
2017-10-21T09:59:06.832Z,10.07
2017-10-21T10:01:34.346Z,13.53
2017-10-21T10:04:01.881Z,10.33
2017-10-21T10:06:30.126Z,9.07
2017-10-21T10:08:57.632Z,7.97
2017-10-21T10:11:25.172Z,9.60
2017-10-21T10:13:53.470Z,11.03
2017-10-21T10:16:21.028Z,11.53
2017-10-21T10:18:48.538Z,7.73
2017-10-21T10:21:16.098Z,8.60
2017-10-21T10:23:56.467Z,12.67
2017-10-21T10:26:24.837Z,10.50
2017-10-21T10:28:52.368Z,10.13
2017-10-21T10:31:19.976Z,9.20
2017-10-21T10:33:48.252Z,13.03
2017-10-21T10:36:16.522Z,10.60
2017-10-21T10:38:44.224Z,9.63
2017-10-21T10:41:11.756Z,9.47
2017-10-21T10:43:40.149Z,11.50
2017-10-21T10:46:07.688Z,14.40
2017-10-21T10:48:36.019Z,8.70
2017-10-21T10:51:03.524Z,9.40
2017-10-21T10:53:31.817Z,9.07
2017-10-21T10:55:59.385Z,8.85
2017-10-21T10:58:26.879Z,8.20
2017-10-21T11:00:54.366Z,10.90
2017-10-21T11:03:21.879Z,11.23
2017-10-21T11:05:49.434Z,11.10
2017-10-21T11:08:16.951Z,8.77
2017-10-21T11:10:44.506Z,8.03
2017-10-21T11:13:12.777Z,8.50
2017-10-21T11:15:40.278Z,7.67
2017-10-21T11:18:22.637Z,9.98
2017-10-21T11:20:50.252Z,7.73
2017-10-21T11:23:17.778Z,14.13
2017-10-21T11:25:46.038Z,9.00
2017-10-21T11:28:14.331Z,15.37
2017-10-21T11:30:42.611Z,8.03
2017-10-21T11:33:10.888Z,8.10
2017-10-21T11:35:39.147Z,8.63
2017-10-21T11:38:07.423Z,8.20
2017-10-21T11:40:34.924Z,9.13
2017-10-21T11:43:02.432Z,8.30
2017-10-21T11:45:29.974Z,8.20
2017-10-21T11:47:57.573Z,6.70
2017-10-21T11:50:25.103Z,10.85
2017-10-21T11:52:52.678Z,6.50
2017-10-21T11:55:20.180Z,6.30
2017-10-21T11:57:47.838Z,9.27
2017-10-21T12:00:15.508Z,7.03
2017-10-21T12:02:43.009Z,7.70
2017-10-21T12:05:10.717Z,9.40
2017-10-21T12:07:38.244Z,6.53
2017-10-21T12:10:06.531Z,6.37
2017-10-21T12:12:34.808Z,7.57
2017-10-21T12:15:03.081Z,6.63
2017-10-21T12:17:31.377Z,7.80
2017-10-21T12:19:58.874Z,7.63
2017-10-21T12:22:27.315Z,7.60
2017-10-21T12:24:54.808Z,6.43
2017-10-21T12:27:22.338Z,6.63
2017-10-21T12:29:49.820Z,5.80
2017-10-21T12:32:17.342Z,6.60
2017-10-21T12:34:44.866Z,5.35
2017-10-21T12:37:12.403Z,6.37
2017-10-21T12:39:39.913Z,9.47
2017-10-21T12:42:08.230Z,6.87
2017-10-21T12:44:36.518Z,8.13
2017-10-21T12:47:04.052Z,6.73
2017-10-21T12:49:31.675Z,6.43
2017-10-21T12:51:59.965Z,6.37
2017-10-21T12:54:28.288Z,6.37
2017-10-21T12:57:03.648Z,5.53
2017-10-21T12:59:31.273Z,5.60
2017-10-21T13:01:58.769Z,5.50
2017-10-21T13:04:26.386Z,5.20
2017-10-21T13:06:53.881Z,5.53
2017-10-21T13:09:21.456Z,6.07
2017-10-21T13:11:48.977Z,8.33
2017-10-21T13:14:16.726Z,5.73
2017-10-21T13:16:44.293Z,5.20
2017-10-21T13:19:11.839Z,4.47
2017-10-21T13:21:39.396Z,8.83
2017-10-21T13:24:06.919Z,5.20
2017-10-21T13:26:34.421Z,9.10
2017-10-21T13:29:01.945Z,5.25
2017-10-21T13:31:30.193Z,5.93
2017-10-21T13:33:57.715Z,4.97
2017-10-21T13:36:25.610Z,4.53
2017-10-21T13:38:53.365Z,6.10
2017-10-21T13:41:21.009Z,5.70
2017-10-21T13:43:48.572Z,7.60
2017-10-21T13:46:16.146Z,4.40
2017-10-21T13:48:43.692Z,4.83
2017-10-21T13:51:11.217Z,6.17
2017-10-21T13:53:39.528Z,5.50
2017-10-21T13:56:07.094Z,4.50
2017-10-21T13:58:34.600Z,5.23
2017-10-21T14:01:02.918Z,8.43
2017-10-21T14:03:30.437Z,8.00
2017-10-21T14:05:58.046Z,6.63
2017-10-21T14:08:25.577Z,8.40
2017-10-21T14:10:53.850Z,7.47
2017-10-21T14:13:22.150Z,5.32
2017-10-21T14:15:49.659Z,6.10
2017-10-21T14:18:17.176Z,5.90
2017-10-21T14:20:44.700Z,8.03
2017-10-21T14:23:12.986Z,6.57
2017-10-21T14:25:40.527Z,7.00
2017-10-21T14:28:08.785Z,9.00
2017-10-21T14:30:36.294Z,9.80
2017-10-21T14:33:03.816Z,8.87
2017-10-21T14:35:31.354Z,9.85
2017-10-21T14:37:58.880Z,6.73
2017-10-21T14:40:26.434Z,8.88
2017-10-21T14:42:53.958Z,7.77
2017-10-21T14:45:22.268Z,8.40
2017-10-21T14:47:49.798Z,7.90
2017-10-21T14:50:18.128Z,29.70
2017-10-21T14:52:45.716Z,24.63
2017-10-21T14:55:13.240Z,52.43
2017-10-21T14:57:40.799Z,39.60
2017-10-21T15:00:08.311Z,21.70
2017-10-21T15:02:36.799Z,13.80
2017-10-21T15:05:05.074Z,22.00
2017-10-21T15:07:33.388Z,14.50
2017-10-21T15:10:00.901Z,10.37
2017-10-21T15:12:28.516Z,10.75
2017-10-21T15:14:56.061Z,9.93
2017-10-21T15:17:23.728Z,11.73
2017-10-21T15:19:51.236Z,13.35
2017-10-21T15:22:18.797Z,11.40
2017-10-21T15:24:47.257Z,40.90
2017-10-21T15:27:14.752Z,30.10
2017-10-21T15:29:43.010Z,31.17
2017-10-21T15:32:10.513Z,32.13
2017-10-21T15:34:38.054Z,47.83
2017-10-21T15:37:06.362Z,98.33
2017-10-21T15:39:33.920Z,20.13
2017-10-21T15:42:01.463Z,18.57
2017-10-21T15:44:29.035Z,8.67
2017-10-21T15:46:56.525Z,12.03
2017-10-21T15:49:24.058Z,12.60
2017-10-21T15:51:51.582Z,17.50
2017-10-21T15:54:19.107Z,13.20
2017-10-21T15:56:46.728Z,15.63
2017-10-21T15:59:14.259Z,10.57
2017-10-21T16:01:41.754Z,10.60
2017-10-21T16:04:10.326Z,16.43
2017-10-21T16:06:37.850Z,18.07
2017-10-21T16:09:06.147Z,22.00
2017-10-21T16:11:33.653Z,14.03
2017-10-21T16:14:01.292Z,12.53
2017-10-21T16:16:28.840Z,10.57
2017-10-21T16:18:56.369Z,11.83
2017-10-21T16:21:24.628Z,18.27
2017-10-21T16:23:52.281Z,15.30
2017-10-21T16:26:19.997Z,10.03
2017-10-21T16:28:47.786Z,8.87
2017-10-21T16:31:15.536Z,11.47
2017-10-21T16:33:43.488Z,4.50
2017-10-21T16:36:11.278Z,3.40
2017-10-21T16:38:39.104Z,3.45
2017-10-21T16:41:07.592Z,3.90
2017-10-21T16:43:35.365Z,3.50
2017-10-21T16:46:03.204Z,4.17
2017-10-21T16:48:31.553Z,2.37
2017-10-21T16:50:59.229Z,9.50
2017-10-21T16:53:29.958Z,3.17
2017-10-21T16:55:59.424Z,3.17
2017-10-21T16:58:27.082Z,2.30
2017-10-21T17:00:54.614Z,4.53
2017-10-21T17:03:22.885Z,1.83
2017-10-21T17:05:51.152Z,2.13
2017-10-21T17:08:18.663Z,2.27
2017-10-21T17:10:46.188Z,2.30
2017-10-21T17:13:13.700Z,2.47
2017-10-21T17:15:41.217Z,4.43
2017-10-21T17:18:08.716Z,1.20
2017-10-21T17:20:36.241Z,1.50
2017-10-21T17:23:03.875Z,2.80
2017-10-21T17:25:32.224Z,3.60
2017-10-21T17:27:59.740Z,1.93
2017-10-21T17:30:27.245Z,1.20
2017-10-21T17:32:54.759Z,2.45
2017-10-21T17:35:22.318Z,1.20
2017-10-21T17:37:49.852Z,2.10
2017-10-21T17:40:18.146Z,2.40
2017-10-21T17:42:45.690Z,2.53
2017-10-21T17:45:13.944Z,1.63
2017-10-21T17:47:42.283Z,2.13
2017-10-21T17:50:09.792Z,2.90
2017-10-21T17:52:38.102Z,2.73
2017-10-21T17:55:05.629Z,4.63
2017-10-21T17:57:33.937Z,1.43
2017-10-21T18:00:01.468Z,3.20
2017-10-21T18:02:29.875Z,1.90
2017-10-21T18:04:57.380Z,1.60
2017-10-21T18:07:24.929Z,7.47
2017-10-21T18:09:52.430Z,4.22
2017-10-21T18:12:20.724Z,7.33
2017-10-21T18:14:48.236Z,1.37
2017-10-21T18:17:16.580Z,2.85
2017-10-21T18:19:44.079Z,1.97
2017-10-21T18:22:11.585Z,9.00
2017-10-21T18:24:39.095Z,2.70
2017-10-21T18:27:06.593Z,5.80
2017-10-21T18:29:34.128Z,6.17
2017-10-21T18:32:02.430Z,6.33
2017-10-21T18:34:30.678Z,3.67
2017-10-21T18:36:58.964Z,3.73
2017-10-21T18:39:27.248Z,2.57
2017-10-21T18:41:54.792Z,6.20
2017-10-21T18:44:23.081Z,2.17
2017-10-21T18:46:50.613Z,3.30
2017-10-21T18:49:18.100Z,5.87
2017-10-21T18:51:46.403Z,2.80
2017-10-21T18:54:13.919Z,2.53
2017-10-21T18:56:42.364Z,4.07
2017-10-21T18:59:09.878Z,2.67
2017-10-21T19:01:37.485Z,4.13
2017-10-21T19:04:04.996Z,4.00
2017-10-21T19:06:32.693Z,4.20
2017-10-21T19:09:00.213Z,4.05
2017-10-21T19:11:28.473Z,2.10
2017-10-21T19:13:56.755Z,4.97
2017-10-21T19:16:25.027Z,1.83
2017-10-21T19:18:52.548Z,4.50
2017-10-21T19:21:20.046Z,3.00
2017-10-21T19:23:48.353Z,7.07
2017-10-21T19:26:15.847Z,4.13
2017-10-21T19:28:44.410Z,4.73
2017-10-21T19:31:11.953Z,5.25
2017-10-21T19:33:39.440Z,3.20
2017-10-21T19:36:06.960Z,2.60
2017-10-21T19:38:34.492Z,2.20
2017-10-21T19:41:02.049Z,2.80
2017-10-21T19:43:30.333Z,6.40
2017-10-21T19:45:58.617Z,2.40
2017-10-21T19:48:26.876Z,5.43
2017-10-21T19:50:54.378Z,4.70
2017-10-21T19:53:21.903Z,4.50
2017-10-21T19:55:50.185Z,17.30
2017-10-21T19:58:18.481Z,10.17
2017-10-21T20:00:46.022Z,3.40
2017-10-21T20:03:14.314Z,2.73
2017-10-21T20:05:41.814Z,7.83
2017-10-21T20:08:09.324Z,2.30
2017-10-21T20:10:36.877Z,2.40
2017-10-21T20:13:04.433Z,5.53
2017-10-21T20:15:32.696Z,6.18
2017-10-21T20:18:00.215Z,5.13
2017-10-21T20:20:27.739Z,4.00
2017-10-21T20:22:55.219Z,5.60
2017-10-21T20:25:23.456Z,5.03
2017-10-21T20:27:51.735Z,9.53
2017-10-21T20:30:20.029Z,8.70
2017-10-21T20:32:47.549Z,3.70
2017-10-21T20:35:15.082Z,3.00
2017-10-21T20:37:42.720Z,2.37
2017-10-21T20:40:10.200Z,4.30
2017-10-21T20:42:37.717Z,6.20
2017-10-21T20:45:05.989Z,4.50
2017-10-21T20:47:34.271Z,5.27
2017-10-21T20:50:02.549Z,3.87
2017-10-21T20:52:30.865Z,3.33
2017-10-21T20:54:58.383Z,2.00
2017-10-21T20:57:26.661Z,3.90
2017-10-21T20:59:54.908Z,5.93
2017-10-21T21:02:23.921Z,4.53
2017-10-21T21:04:52.214Z,4.00
2017-10-21T21:07:19.740Z,3.07
2017-10-21T21:09:47.269Z,2.17
2017-10-21T21:12:14.794Z,3.90
2017-10-21T21:14:42.297Z,3.40
2017-10-21T21:17:09.812Z,3.73
2017-10-21T21:19:37.338Z,6.37
2017-10-21T21:22:05.689Z,11.27
2017-10-21T21:24:33.191Z,6.30
2017-10-21T21:27:01.504Z,9.47
2017-10-21T21:29:29.016Z,5.07
2017-10-21T21:31:57.297Z,7.43
2017-10-21T21:34:25.605Z,8.60
2017-10-21T21:36:53.107Z,3.20
2017-10-21T21:39:20.628Z,3.47
2017-10-21T21:41:48.285Z,3.43
2017-10-21T21:44:15.808Z,4.27
2017-10-21T21:46:44.077Z,6.03
2017-10-21T21:49:11.586Z,2.57
2017-10-21T21:51:39.110Z,2.23
2017-10-21T21:54:07.397Z,2.37
2017-10-21T21:56:34.897Z,2.80
2017-10-21T21:59:02.510Z,2.73
2017-10-21T22:01:30.061Z,2.47
2017-10-21T22:03:58.369Z,1.90
2017-10-21T22:06:25.877Z,2.10
2017-10-21T22:08:53.392Z,3.77
2017-10-21T22:11:20.917Z,7.03
2017-10-21T22:13:48.509Z,2.40
2017-10-21T22:16:16.022Z,1.87
2017-10-21T22:18:43.542Z,2.90
2017-10-21T22:21:11.050Z,2.73
2017-10-21T22:23:39.424Z,2.93
2017-10-21T22:26:07.709Z,2.33
2017-10-21T22:28:35.992Z,8.47
2017-10-21T22:31:03.573Z,3.10
2017-10-21T22:33:31.233Z,4.07
2017-10-21T22:35:58.760Z,3.03
2017-10-21T22:38:27.109Z,3.67
2017-10-21T22:40:54.644Z,1.62
2017-10-21T22:43:22.177Z,2.37
2017-10-21T22:45:49.741Z,3.30
2017-10-21T22:48:17.294Z,4.37
2017-10-21T22:50:44.801Z,2.78
2017-10-21T22:53:12.314Z,3.70
2017-10-21T22:55:39.848Z,3.47
2017-10-21T22:58:08.120Z,2.07
2017-10-21T23:00:35.693Z,2.33
2017-10-21T23:03:03.964Z,1.93
2017-10-21T23:05:32.271Z,2.87
2017-10-21T23:07:59.768Z,2.20
2017-10-21T23:10:27.269Z,2.07
2017-10-21T23:12:55.533Z,1.42
2017-10-21T23:15:23.835Z,2.80
2017-10-21T23:17:51.359Z,2.50
2017-10-21T23:20:18.879Z,1.30
2017-10-21T23:22:46.397Z,3.40
2017-10-21T23:25:14.801Z,2.90
2017-10-21T23:27:42.305Z,2.23
2017-10-21T23:30:09.818Z,1.90
2017-10-21T23:32:37.365Z,2.90
2017-10-21T23:35:04.911Z,3.62
2017-10-21T23:37:33.266Z,1.47
2017-10-21T23:40:00.833Z,2.47
2017-10-21T23:42:29.114Z,2.07
2017-10-21T23:44:57.406Z,2.50
2017-10-21T23:47:25.732Z,3.77
2017-10-21T23:49:53.224Z,3.43
2017-10-21T23:52:20.732Z,4.03
2017-10-21T23:54:48.228Z,8.43
2017-10-21T23:57:15.772Z,2.47
2017-10-21T23:59:43.312Z,2.20
